Time;durP1;ratioP1;P1;durP2;ratioP2;P2;SDS_P1;SDS_P2;PMS_P1;PMS_P2;Temp;Humidity;BMP_temperature;BMP_pressure;BME280_temperature;BME280_humidity;BME280_pressure;Samples;Min_cycle;Max_cycle;Signal;HPM_P1;HPM_P2
2022/05/30 00:02:15;;;;;;;0.00;0.00;;;13.80;68.00;;;;;;4151770;28;20050;-72
2022/05/30 00:04:43;;;;;;;;;;;13.80;67.90;;;;;;4152767;28;20053;-73
2022/05/30 00:07:06;;;;;;;0.00;0.00;;;13.80;67.90;;;;;;4166045;28;19921;-72
2022/05/30 00:09:31;;;;;;;0.00;0.00;;;13.70;68.10;;;;;;4165135;28;20045;-72
2022/05/30 00:11:53;;;;;;;0.00;0.00;;;13.70;68.40;;;;;;4165258;28;20495;-69
2022/05/30 00:14:20;;;;;;;0.00;0.00;;;13.70;68.60;;;;;;4165265;28;20060;-70
2022/05/30 00:16:42;;;;;;;0.00;0.00;;;13.70;68.70;;;;;;4151550;28;20341;-70
2022/05/30 00:19:06;;;;;;;0.00;0.00;;;13.80;68.70;;;;;;4165573;28;20092;-70
2022/05/30 00:21:32;;;;;;;0.00;0.00;;;13.90;68.50;;;;;;4165136;28;20060;-71
2022/05/30 00:23:54;;;;;;;0.00;0.00;;;13.90;68.40;;;;;;4165087;28;20048;-71
2022/05/30 00:26:16;;;;;;;0.00;0.00;;;13.80;68.70;;;;;;4151144;28;20045;-69
2022/05/30 00:28:42;;;;;;;0.00;0.00;;;13.60;69.00;;;;;;4164123;28;20038;-71
2022/05/30 00:31:12;;;;;;;0.00;0.00;;;13.50;69.50;;;;;;4151253;28;20200;-72
2022/05/30 00:33:37;;;;;;;0.00;0.00;;;13.50;69.80;;;;;;4150969;28;20115;-71
2022/05/30 00:36:02;;;;;;;0.00;0.00;;;13.60;69.80;;;;;;4164877;28;20065;-71
2022/05/30 00:38:24;;;;;;;0.00;0.00;;;13.70;69.60;;;;;;4151124;28;20140;-70
2022/05/30 00:40:50;;;;;;;0.00;0.00;;;13.80;69.50;;;;;;4151407;28;20049;-70
2022/05/30 00:43:24;;;;;;;0.00;0.00;;;13.70;69.40;;;;;;4151162;28;20054;-70
2022/05/30 00:45:53;;;;;;;0.00;0.00;;;13.70;69.50;;;;;;4151484;28;20044;-71
2022/05/30 00:48:19;;;;;;;0.00;0.00;;;13.60;69.70;;;;;;4151264;28;20488;-71
2022/05/30 00:50:46;;;;;;;0.00;0.00;;;13.60;69.80;;;;;;4164682;28;20045;-70
2022/05/30 00:53:08;;;;;;;0.00;0.00;;;13.60;69.70;;;;;;4150995;28;20053;-70
2022/05/30 00:55:30;;;;;;;0.00;0.00;;;13.70;69.60;;;;;;4151112;28;20096;-73
2022/05/30 00:57:57;;;;;;;0.00;0.00;;;13.60;69.70;;;;;;4164647;28;20187;-70
2022/05/30 01:00:22;;;;;;;0.00;0.00;;;13.60;70.00;;;;;;4164759;28;20049;-70
2022/05/30 01:06:30;;;;;;;0.00;0.00;;;13.60;70.00;;;;;;4164445;28;20073;-71
2022/05/30 01:08:17;;;;;;;0.00;0.00;;;13.60;70.30;;;;;;4150946;28;20111;-70
2022/05/30 01:10:39;;;;;;;0.00;0.00;;;13.50;70.40;;;;;;4137336;28;20156;-69
2022/05/30 01:13:01;;;;;;;0.00;0.00;;;13.60;70.50;;;;;;4151038;28;20050;-69
2022/05/30 01:15:30;;;;;;;0.00;0.00;;;13.50;70.60;;;;;;4150896;28;20096;-69
2022/05/30 01:18:04;;;;;;;0.00;0.00;;;13.40;70.70;;;;;;4150754;28;20053;-70
2022/05/30 01:20:44;;;;;;;0.00;0.00;;;13.40;70.80;;;;;;4151066;28;20448;-73
2022/05/30 01:23:34;;;;;;;0.00;0.00;;;13.40;71.10;;;;;;4164810;28;20492;-71
2022/05/30 01:26:19;;;;;;;0.00;0.00;;;13.40;71.00;;;;;;4150811;28;20067;-71
2022/05/30 01:29:01;;;;;;;0.00;0.00;;;13.40;71.00;;;;;;4151204;28;20491;-70
2022/05/30 01:31:28;;;;;;;0.00;0.00;;;13.20;71.50;;;;;;4151104;28;20050;-70
2022/05/30 01:33:52;;;;;;;0.00;0.00;;;13.20;71.70;;;;;;4164590;28;20129;-70
2022/05/30 01:36:20;;;;;;;0.00;0.00;;;13.10;71.80;;;;;;4164535;28;20415;-71
2022/05/30 01:38:45;;;;;;;0.00;0.00;;;13.10;72.00;;;;;;4150944;28;20104;-71
2022/05/30 01:41:09;;;;;;;0.00;0.00;;;13.10;72.10;;;;;;4153942;28;20041;-72
2022/05/30 01:43:34;;;;;;;0.00;0.00;;;13.00;72.20;;;;;;4154497;28;20085;-69
2022/05/30 01:46:07;;;;;;;0.00;0.00;;;13.00;72.40;;;;;;4153952;28;20100;-70
2022/05/30 01:48:35;;;;;;;0.00;0.00;;;13.00;72.60;;;;;;4153755;28;20358;-70
2022/05/30 01:51:00;;;;;;;0.00;0.00;;;12.90;72.60;;;;;;4153772;28;20096;-70
2022/05/30 01:53:23;;;;;;;0.00;0.00;;;13.00;72.70;;;;;;4167116;28;20391;-71
2022/05/30 01:56:18;;;;;;;0.00;0.00;;;13.00;73.00;;;;;;4152878;28;20123;-71
2022/05/30 01:58:43;;;;;;;0.00;0.00;;;12.90;73.10;;;;;;4167222;28;20049;-71
2022/05/30 02:01:26;;;;;;;0.00;0.00;;;12.80;73.30;;;;;;4167391;28;20120;-69
2022/05/30 02:03:54;;;;;;;0.00;0.00;;;12.80;73.30;;;;;;4153593;28;20096;-71
2022/05/30 02:06:20;;;;;;;0.00;0.00;;;12.80;73.40;;;;;;4153635;28;20060;-70
2022/05/30 02:08:51;;;;;;;0.00;0.00;;;12.90;73.40;;;;;;4167052;28;20053;-72
2022/05/30 02:11:17;;;;;;;0.00;0.00;;;12.80;73.40;;;;;;4153661;28;20062;-72
2022/05/30 02:13:40;;;;;;;0.00;0.00;;;12.70;73.70;;;;;;4167008;28;20049;-72
2022/05/30 02:18:57;;;;;;;0.00;0.00;;;12.60;74.10;;;;;;4153022;28;20081;-68
2022/05/30 02:21:19;;;;;;;0.00;0.00;;;12.50;74.40;;;;;;4153060;28;20045;-72
2022/05/30 02:23:42;;;;;;;0.00;0.00;;;12.60;74.40;;;;;;4153093;28;20054;-70
2022/05/30 02:26:09;;;;;;;0.00;0.00;;;12.60;74.20;;;;;;4167014;28;20053;-71
2022/05/30 02:28:32;;;;;;;0.00;0.00;;;12.70;74.20;;;;;;4153132;28;20085;-72
2022/05/30 02:30:57;;;;;;;0.00;0.00;;;12.60;74.20;;;;;;4152937;28;20483;-70
2022/05/30 02:38:49;;;;;;;0.00;0.00;;;12.50;74.90;;;;;;4152608;28;20060;-70
2022/05/30 02:41:34;;;;;;;0.00;0.00;;;12.50;75.00;;;;;;4166241;28;20052;-70
2022/05/30 02:44:04;;;;;;;0.00;0.00;;;12.50;75.60;;;;;;4153725;28;20049;-68
2022/05/30 02:46:28;;;;;;;0.00;0.00;;;12.50;75.10;;;;;;4152422;28;20056;-70
2022/05/30 02:48:53;;;;;;;0.00;0.00;;;12.40;75.20;;;;;;4166461;28;20080;-70
2022/05/30 02:51:16;;;;;;;0.00;0.00;;;12.40;75.20;;;;;;4151449;28;20061;-69
2022/05/30 02:53:38;;;;;;;0.00;0.00;;;12.40;75.40;;;;;;4152425;28;20034;-70
2022/05/30 02:56:25;;;;;;;0.00;0.00;;;12.40;75.40;;;;;;4156133;28;20045;-70
2022/05/30 02:58:48;;;;;;;0.00;0.00;;;12.40;75.60;;;;;;4152358;28;20053;-71
2022/05/30 03:01:16;;;;;;;0.00;0.00;;;12.40;75.50;;;;;;4165862;28;20037;-71
2022/05/30 03:03:39;;;;;;;0.00;0.00;;;12.40;75.70;;;;;;4166012;28;20049;-69
2022/05/30 03:06:04;;;;;;;0.00;0.00;;;12.40;75.70;;;;;;4166207;28;20514;-70
2022/05/30 03:08:30;;;;;;;0.00;0.00;;;12.40;75.70;;;;;;4152372;28;20085;-70
2022/05/30 03:11:15;;;;;;;0.00;0.00;;;12.40;75.80;;;;;;4155199;28;20468;-72
2022/05/30 03:13:40;;;;;;;0.00;0.00;;;12.40;75.80;;;;;;4152098;28;20049;-72
2022/05/30 03:16:04;;;;;;;0.00;0.00;;;12.30;76.20;;;;;;4152137;28;20085;-69
2022/05/30 03:18:29;;;;;;;0.00;0.00;;;12.30;76.30;;;;;;4165956;28;20459;-71
2022/05/30 03:20:54;;;;;;;0.00;0.00;;;12.30;76.40;;;;;;4152356;28;20052;-70
2022/05/30 03:23:18;;;;;;;0.00;0.00;;;12.30;76.60;;;;;;4165910;28;20119;-71
2022/05/30 03:25:54;;;;;;;0.00;0.00;;;12.30;76.80;;;;;;4166087;28;20049;-69
2022/05/30 03:28:21;;;;;;;0.00;0.00;;;12.30;76.90;;;;;;4152113;28;20453;-71
2022/05/30 03:30:46;;;;;;;0.00;0.00;;;12.30;77.00;;;;;;4165702;28;20434;-73
2022/05/30 03:33:09;;;;;;;0.00;0.00;;;12.30;77.20;;;;;;4151762;28;20258;-70
2022/05/30 03:35:32;;;;;;;0.00;0.00;;;12.40;77.10;;;;;;4151887;28;20412;-70
2022/05/30 03:38:16;;;;;;;0.00;0.00;;;12.40;77.60;;;;;;4165777;28;20479;-69
2022/05/30 03:40:57;;;;;;;0.00;0.00;;;12.30;77.30;;;;;;4165309;28;20113;-70
2022/05/30 03:43:38;;;;;;;0.00;0.00;;;12.20;77.60;;;;;;4151461;28;20050;-69
2022/05/30 03:46:00;;;;;;;0.00;0.00;;;12.20;77.70;;;;;;4165130;28;20052;-71
2022/05/30 03:48:24;;;;;;;0.00;0.00;;;12.20;78.40;;;;;;4138416;28;20050;-69
2022/05/30 03:50:50;;;;;;;0.00;0.00;;;12.20;77.80;;;;;;4165350;28;20068;-70
2022/05/30 03:53:13;;;;;;;0.00;0.00;;;12.20;77.80;;;;;;4151842;28;20495;-68
2022/05/30 03:55:42;;;;;;;0.00;0.00;;;12.20;77.70;;;;;;4151666;28;20050;-69
2022/05/30 03:58:07;;;;;;;0.00;0.00;;;12.20;77.80;;;;;;4151911;28;20062;-69
2022/05/30 04:00:30;;;;;;;0.00;0.00;;;12.10;78.00;;;;;;4151800;28;20054;-70
2022/05/30 04:02:56;;;;;;;0.00;0.00;;;12.10;78.00;;;;;;4165148;28;20451;-70
2022/05/30 04:05:21;;;;;;;0.00;0.00;;;12.10;78.00;;;;;;4165929;28;20401;-70
2022/05/30 04:07:48;;;;;;;0.00;0.00;;;12.10;78.00;;;;;;4166028;28;20060;-72
2022/05/30 04:10:31;;;;;;;0.00;0.00;;;12.10;78.10;;;;;;4165680;28;20456;-72
2022/05/30 04:13:19;;;;;;;0.00;0.00;;;12.10;78.10;;;;;;4169375;28;20110;-72
2022/05/30 04:15:56;;;;;;;0.00;0.00;;;12.00;78.10;;;;;;4167617;28;20066;-70
2022/05/30 04:18:30;;;;;;;0.00;0.00;;;12.00;78.20;;;;;;4165345;28;20152;-70
2022/05/30 04:20:54;;;;;;;0.00;0.00;;;12.10;78.20;;;;;;4165658;28;20507;-70
2022/05/30 04:23:18;;;;;;;0.00;0.00;;;12.10;78.20;;;;;;4151578;28;20058;-70
2022/05/30 04:25:48;;;;;;;0.00;0.00;;;12.10;78.20;;;;;;4151822;28;20132;-72
2022/05/30 04:28:13;;;;;;;0.00;0.00;;;12.20;78.20;;;;;;4165228;28;20053;-72
2022/05/30 04:30:39;;;;;;;0.00;0.00;;;12.20;78.20;;;;;;4151541;28;20060;-68
2022/05/30 04:33:02;;;;;;;0.00;0.00;;;12.30;78.20;;;;;;4151200;28;20061;-71
2022/05/30 04:35:28;;;;;;;0.00;0.00;;;12.30;78.20;;;;;;4165383;28;20057;-68
2022/05/30 04:37:54;;;;;;;0.00;0.00;;;12.20;78.20;;;;;;4164968;28;20051;-70
2022/05/30 04:40:29;;;;;;;0.00;0.00;;;12.40;78.10;;;;;;4164960;28;20046;-70
2022/05/30 04:43:17;;;;;;;0.00;0.00;;;12.50;77.90;;;;;;4160103;28;20069;-70
2022/05/30 04:46:12;;;;;;;0.00;0.00;;;12.50;77.70;;;;;;4165210;28;20049;-71
2022/05/30 04:48:44;;;;;;;0.00;0.00;;;12.50;77.50;;;;;;4164996;28;20064;-69
2022/05/30 04:51:08;;;;;;;0.00;0.00;;;12.50;77.70;;;;;;4151162;28;20164;-70
2022/05/30 04:53:34;;;;;;;0.00;0.00;;;12.60;77.80;;;;;;4164941;28;20064;-69
2022/05/30 04:56:09;;;;;;;0.00;0.00;;;12.60;77.90;;;;;;4165161;28;20050;-69
2022/05/30 04:58:52;;;;;;;0.00;0.00;;;12.60;77.90;;;;;;4164932;28;20074;-69
2022/05/30 05:01:18;;;;;;;0.00;0.00;;;12.70;77.80;;;;;;4151168;28;20053;-73
2022/05/30 05:03:44;;;;;;;0.00;0.00;;;12.70;77.80;;;;;;4151042;28;20445;-71
2022/05/30 05:06:14;;;;;;;0.00;0.00;;;12.70;78.00;;;;;;4164951;28;20108;-70
2022/05/30 05:08:51;;;;;;;0.00;0.00;;;12.60;78.30;;;;;;4151472;28;20085;-70
2022/05/30 05:11:31;;;;;;;0.00;0.00;;;12.70;78.50;;;;;;4166953;28;20099;-69
2022/05/30 05:14:15;;;;;;;0.00;0.00;;;12.80;78.20;;;;;;4165856;28;20041;-70
2022/05/30 05:16:58;;;;;;;0.00;0.00;;;12.80;77.90;;;;;;4168018;28;20053;-69
2022/05/30 05:19:21;;;;;;;0.00;0.00;;;12.70;78.40;;;;;;4154317;28;20177;-71
2022/05/30 05:21:50;;;;;;;0.00;0.00;;;12.90;78.60;;;;;;4168016;28;20075;-71
2022/05/30 05:24:16;;;;;;;0.00;0.00;;;13.00;78.40;;;;;;4154144;28;20079;-70
2022/05/30 05:27:13;;;;;;;0.00;0.00;;;13.10;78.40;;;;;;4167908;28;20095;-69
2022/05/30 05:29:38;;;;;;;0.00;0.00;;;13.10;78.50;;;;;;4168224;28;20068;-71
2022/05/30 05:32:01;;;;;;;0.00;0.00;;;13.20;78.20;;;;;;4140893;28;20054;-71
2022/05/30 05:34:24;;;;;;;0.00;0.00;;;13.20;77.50;;;;;;4167625;28;20091;-69
2022/05/30 05:36:47;;;;;;;0.00;0.00;;;13.30;77.30;;;;;;4153796;28;20081;-70
2022/05/30 05:39:13;;;;;;;0.00;0.00;;;13.40;77.30;;;;;;4154379;28;20049;-72
2022/05/30 05:41:42;;;;;;;0.00;0.00;;;13.50;76.90;;;;;;4167890;28;20057;-71
2022/05/30 05:44:09;;;;;;;0.00;0.00;;;13.50;76.60;;;;;;4154218;28;20060;-75
2022/05/30 05:46:36;;;;;;;0.00;0.00;;;13.50;76.50;;;;;;4140743;28;20431;-74
2022/05/30 05:48:59;;;;;;;0.00;0.00;;;13.60;76.40;;;;;;4154049;28;20068;-75
2022/05/30 05:51:27;;;;;;;0.00;0.00;;;13.70;76.40;;;;;;4154249;28;20504;-72
2022/05/30 05:54:00;;;;;;;0.00;0.00;;;13.80;76.10;;;;;;4167576;28;20416;-72
2022/05/30 05:56:28;;;;;;;0.00;0.00;;;14.00;76.00;;;;;;4167607;28;20057;-71
2022/05/30 05:58:53;;;;;;;0.00;0.00;;;14.10;75.70;;;;;;4153895;28;20141;-71
2022/05/30 06:01:19;;;;;;;0.00;0.00;;;14.10;75.50;;;;;;4154234;28;20439;-71
2022/05/30 06:03:44;;;;;;;0.00;0.00;;;14.10;75.70;;;;;;4154773;28;20061;-72
2022/05/30 06:06:45;;;;;;;0.00;0.00;;;14.10;75.80;;;;;;4148348;28;20471;-72
2022/05/30 06:09:20;;;;;;;0.00;0.00;;;14.20;75.70;;;;;;4153420;28;20049;-72
2022/05/30 06:11:47;;;;;;;0.00;0.00;;;14.30;75.60;;;;;;4126999;28;20129;-73
2022/05/30 06:14:12;;;;;;;0.00;0.00;;;14.40;75.30;;;;;;4153623;28;20059;-72
2022/05/30 06:16:40;;;;;;;0.00;0.00;;;14.50;74.80;;;;;;4153132;28;20144;-71
2022/05/30 06:19:11;;;;;;;0.00;0.00;;;14.50;74.60;;;;;;4154270;28;20337;-74
2022/05/30 06:21:35;;;;;;;0.00;0.00;;;14.40;74.90;;;;;;4166837;28;20115;-70
2022/05/30 06:23:59;;;;;;;0.00;0.00;;;14.40;74.50;;;;;;4139926;28;20137;-72
2022/05/30 06:26:39;;;;;;;;;;;14.40;74.40;;;;;;4153291;28;20400;-72
2022/05/30 06:29:21;;;;;;;0.00;0.00;;;14.60;74.00;;;;;;4153203;28;19921;-69
2022/05/30 06:31:46;;;;;;;0.00;0.00;;;14.80;73.50;;;;;;4153451;28;20055;-72
2022/05/30 06:34:08;;;;;;;0.00;0.00;;;14.90;73.30;;;;;;4153355;28;20042;-70
2022/05/30 06:36:34;;;;;;;0.00;0.00;;;14.90;73.00;;;;;;4166683;28;20053;-71
2022/05/30 06:38:59;;;;;;;0.00;0.00;;;15.00;72.70;;;;;;4153509;28;20053;-69
2022/05/30 06:41:33;;;;;;;0.00;0.00;;;15.20;72.40;;;;;;4152959;28;20065;-73
2022/05/30 06:44:05;;;;;;;0.00;0.00;;;15.40;72.20;;;;;;4140206;28;20088;-72
2022/05/30 06:46:48;;;;;;;0.00;0.00;;;15.50;72.00;;;;;;4166524;28;20051;-71
2022/05/30 06:49:36;;;;;;;0.00;0.00;;;15.60;71.50;;;;;;4155997;28;20053;-72
2022/05/30 06:52:00;;;;;;;0.00;0.00;;;15.90;71.30;;;;;;4152819;28;20045;-72
2022/05/30 06:54:26;;;;;;;0.00;0.00;;;16.10;70.80;;;;;;4152704;28;20067;-71
2022/05/30 06:59:31;;;;;;;0.00;0.00;;;16.30;70.10;;;;;;4153760;28;20144;-75
2022/05/30 07:01:55;;;;;;;0.00;0.00;;;16.20;69.40;;;;;;4155031;28;20093;-74
2022/05/30 07:04:38;;;;;;;0.00;0.00;;;16.10;68.70;;;;;;4176569;28;20116;-70
2022/05/30 07:07:29;;;;;;;0.00;0.00;;;16.00;69.60;;;;;;4182830;28;20059;-69
2022/05/30 07:10:12;;;;;;;0.00;0.00;;;16.00;70.30;;;;;;4169047;28;20140;-69
2022/05/30 07:12:52;;;;;;;0.00;0.00;;;16.30;69.60;;;;;;4155262;28;20919;-73
2022/05/30 07:15:18;;;;;;;0.00;0.00;;;16.40;68.70;;;;;;4166808;28;20117;-72
2022/05/30 07:17:46;;;;;;;0.00;0.00;;;16.50;68.60;;;;;;4167222;28;20075;-73
2022/05/30 07:20:11;;;;;;;0.00;0.00;;;16.40;67.30;;;;;;4168819;28;20521;-74
2022/05/30 07:22:53;;;;;;;0.00;0.00;;;16.30;67.40;;;;;;4146397;28;20053;-73
2022/05/30 07:25:38;;;;;;;0.00;0.00;;;16.40;67.70;;;;;;4170872;28;20061;-70
2022/05/30 07:28:30;;;;;;;0.00;0.00;;;16.60;67.50;;;;;;4166952;28;20067;-75
2022/05/30 07:31:14;;;;;;;0.00;0.00;;;16.70;65.20;;;;;;4166892;28;20136;-72
2022/05/30 07:33:59;;;;;;;0.00;0.00;;;16.60;65.30;;;;;;4165798;28;20443;-71
2022/05/30 07:36:42;;;;;;;0.00;0.00;;;16.70;65.50;;;;;;4174375;28;20639;-72
2022/05/30 07:39:21;;;;;;;0.00;0.00;;;16.70;64.70;;;;;;4183907;28;20048;-71
2022/05/30 07:42:10;;;;;;;0.00;0.00;;;16.40;64.80;;;;;;4172694;28;20048;-72
2022/05/30 07:44:48;;;;;;;0.00;0.00;;;16.20;65.40;;;;;;4154832;28;20061;-72
2022/05/30 07:47:18;;;;;;;0.00;0.00;;;16.10;65.80;;;;;;4197571;28;20333;-72
2022/05/30 07:50:15;;;;;;;0.00;0.00;;;16.20;65.00;;;;;;4188170;28;20425;-71
2022/05/30 07:53:00;;;;;;;0.00;0.00;;;16.20;64.90;;;;;;4198630;28;20051;-71
2022/05/30 07:55:30;;;;;;;0.00;0.00;;;16.20;64.80;;;;;;4185028;28;20059;-72
2022/05/30 07:58:04;;;;;;;0.00;0.00;;;16.40;65.20;;;;;;4171803;28;20076;-70
2022/05/30 08:00:29;;;;;;;0.00;0.00;;;16.50;65.90;;;;;;4185965;28;20144;-73
2022/05/30 08:03:02;;;;;;;0.00;0.00;;;16.60;64.90;;;;;;4185387;28;20136;-70
2022/05/30 08:05:26;;;;;;;0.00;0.00;;;16.50;64.80;;;;;;4199301;28;20052;-71
2022/05/30 08:08:17;;;;;;;0.00;0.00;;;16.60;64.20;;;;;;4199100;28;20106;-71
2022/05/30 08:10:42;;;;;;;0.00;0.00;;;16.70;63.70;;;;;;4198604;28;20091;-72
2022/05/30 08:13:11;;;;;;;0.00;0.00;;;16.60;63.80;;;;;;4200717;28;20084;-72
2022/05/30 08:15:38;;;;;;;0.00;0.00;;;16.70;64.10;;;;;;4185097;28;20127;-72
2022/05/30 08:18:09;;;;;;;0.00;0.00;;;17.00;64.00;;;;;;4184702;28;20060;-72
2022/05/30 08:20:32;;;;;;;0.00;0.00;;;17.30;62.80;;;;;;4198274;28;20044;-73
2022/05/30 08:22:56;;;;;;;0.00;0.00;;;17.30;61.80;;;;;;4198289;28;20110;-72
2022/05/30 08:25:23;;;;;;;0.00;0.00;;;17.30;62.90;;;;;;4198375;28;20052;-73
2022/05/30 08:27:47;;;;;;;0.00;0.00;;;17.20;63.30;;;;;;4184426;28;20462;-75
2022/05/30 08:30:11;;;;;;;0.00;0.00;;;17.50;62.90;;;;;;4170409;28;20432;-70
2022/05/30 08:32:40;;;;;;;0.00;0.00;;;17.70;62.90;;;;;;4180090;28;20050;-73
2022/05/30 08:35:28;;;;;;;0.00;0.00;;;17.80;63.20;;;;;;4160726;28;20056;-72
2022/05/30 08:37:56;;;;;;;0.00;0.00;;;17.90;62.70;;;;;;4167339;28;20049;-73
2022/05/30 08:43:16;;;;;;;0.00;0.00;;;18.30;61.60;;;;;;4184248;28;20119;-72
2022/05/30 08:45:46;;;;;;;0.00;0.00;;;18.40;61.40;;;;;;4168011;28;20064;-70
2022/05/30 08:48:41;;;;;;;0.00;0.00;;;18.60;60.90;;;;;;4141245;28;20091;-72
2022/05/30 08:51:06;;;;;;;0.00;0.00;;;18.60;60.70;;;;;;4165033;28;20546;-72
2022/05/30 08:53:42;;;;;;;0.00;0.00;;;18.50;61.00;;;;;;4167255;28;20057;-72
2022/05/30 08:56:35;;;;;;;0.00;0.00;;;18.40;61.30;;;;;;4180675;28;20115;-73
2022/05/30 08:59:41;;;;;;;0.00;0.00;;;18.60;61.60;;;;;;4174182;28;20052;-73
2022/05/30 09:02:31;;;;;;;0.00;0.00;;;18.50;60.30;;;;;;4167268;28;20049;-70
2022/05/30 09:05:10;;;;;;;0.00;0.00;;;18.30;59.60;;;;;;4167773;28;20061;-70
2022/05/30 09:07:58;;;;;;;0.00;0.00;;;18.10;60.30;;;;;;4167594;28;20050;-70
2022/05/30 09:10:45;;;;;;;0.00;0.00;;;18.00;59.90;;;;;;4181289;28;20051;-72
2022/05/30 09:13:23;;;;;;;0.00;0.00;;;17.90;60.20;;;;;;4153476;28;20132;-71
2022/05/30 09:16:20;;;;;;;0.00;0.00;;;17.90;59.90;;;;;;4167363;28;20497;-72
2022/05/30 09:18:54;;;;;;;0.00;0.00;;;17.90;59.10;;;;;;4181116;28;20140;-69
2022/05/30 09:21:27;;;;;;;0.00;0.00;;;17.90;59.00;;;;;;4181059;28;20115;-71
2022/05/30 09:23:49;;;;;;;0.00;0.00;;;17.90;59.80;;;;;;4167327;28;20100;-69
2022/05/30 09:26:18;;;;;;;0.00;0.00;;;18.00;60.40;;;;;;4181391;28;20152;-69
2022/05/30 09:28:52;;;;;;;0.00;0.00;;;18.00;59.90;;;;;;4180853;28;20087;-70
2022/05/30 09:31:53;;;;;;;0.00;0.00;;;17.90;59.60;;;;;;4181265;28;20052;-69
2022/05/30 09:34:37;;;;;;;0.00;0.00;;;18.10;59.40;;;;;;4167518;28;20128;-72
2022/05/30 09:37:29;;;;;;;0.00;0.00;;;18.00;58.60;;;;;;4180852;28;20069;-71
2022/05/30 09:40:06;;;;;;;;;;;17.90;58.50;;;;;;4181469;28;20061;-71
2022/05/30 09:42:37;;;;;;;0.00;0.00;;;17.90;58.90;;;;;;4166918;28;19948;-71
2022/05/30 09:45:24;;;;;;;0.00;0.00;;;18.10;59.70;;;;;;4167213;28;20057;-70
2022/05/30 09:47:59;;;;;;;0.00;0.00;;;18.30;59.20;;;;;;4184418;28;20078;-69
2022/05/30 09:50:44;;;;;;;0.00;0.00;;;18.30;59.60;;;;;;4167045;28;20391;-70
2022/05/30 09:53:06;;;;;;;0.00;0.00;;;18.20;58.70;;;;;;4153432;28;20054;-72
2022/05/30 09:55:51;;;;;;;0.00;0.00;;;18.30;59.10;;;;;;4167213;28;20053;-70
2022/05/30 09:58:18;;;;;;;0.00;0.00;;;18.30;58.30;;;;;;4166048;28;20099;-70
2022/05/30 10:01:00;;;;;;;0.00;0.00;;;18.50;59.10;;;;;;4173274;28;20061;-72
2022/05/30 10:03:35;;;;;;;0.00;0.00;;;18.40;58.10;;;;;;4188747;28;20044;-71
2022/05/30 10:06:21;;;;;;;0.00;0.00;;;18.40;56.90;;;;;;4180187;28;20462;-71
2022/05/30 10:08:52;;;;;;;0.00;0.00;;;18.40;56.80;;;;;;4152767;28;20046;-73
2022/05/30 10:11:32;;;;;;;0.00;0.00;;;18.50;57.90;;;;;;4166930;28;20063;-71
2022/05/30 10:14:17;;;;;;;0.00;0.00;;;18.70;57.60;;;;;;4153223;28;20049;-69
2022/05/30 10:17:09;;;;;;;0.00;0.00;;;18.80;57.50;;;;;;4175582;28;20049;-70
2022/05/30 10:19:32;;;;;;;0.00;0.00;;;18.80;57.40;;;;;;4183375;28;20110;-72
2022/05/30 10:28:55;;;;;;;0.00;0.00;;;18.60;57.50;;;;;;4169441;28;20522;-71
2022/05/30 10:31:51;;;;;;;0.00;0.00;;;18.60;57.60;;;;;;4168429;28;20083;-71
2022/05/30 10:34:39;;;;;;;0.00;0.00;;;18.60;57.90;;;;;;4172734;28;20380;-71
2022/05/30 10:37:22;;;;;;;0.00;0.00;;;18.80;57.80;;;;;;4166805;28;20056;-69
2022/05/30 10:40:12;;;;;;;0.00;0.00;;;19.10;57.70;;;;;;4166843;28;20057;-75
2022/05/30 10:42:48;;;;;;;0.00;0.00;;;19.50;56.20;;;;;;4153205;28;20057;-70
2022/05/30 10:45:18;;;;;;;0.00;0.00;;;19.40;55.70;;;;;;4166444;28;20061;-71
2022/05/30 10:47:46;;;;;;;0.00;0.00;;;19.20;54.60;;;;;;4152985;28;20448;-71
2022/05/30 10:50:46;;;;;;;0.00;0.00;;;19.00;55.80;;;;;;4166708;28;20053;-73
2022/05/30 10:53:25;;;;;;;;;;;19.30;56.30;;;;;;4153177;28;20435;-75
2022/05/30 10:56:28;;;;;;;0.00;0.00;;;19.40;55.90;;;;;;4150048;28;20013;-72
2022/05/30 10:59:39;;;;;;;0.00;0.00;;;19.50;55.10;;;;;;4153026;28;20053;-70
2022/05/30 11:02:24;;;;;;;;;;;19.50;54.00;;;;;;4139665;28;20120;-70
2022/05/30 11:04:52;;;;;;;0.00;0.00;;;19.50;53.80;;;;;;4168443;28;19925;-70
2022/05/30 11:07:36;;;;;;;0.00;0.00;;;19.60;54.80;;;;;;4168990;28;20447;-72
2022/05/30 11:10:11;;;;;;;0.00;0.00;;;19.70;53.50;;;;;;4182939;28;20656;-72
2022/05/30 11:12:41;;;;;;;0.00;0.00;;;19.70;54.40;;;;;;4181676;28;20100;-70
2022/05/30 11:15:30;;;;;;;0.00;0.00;;;19.80;54.40;;;;;;4182241;28;20111;-72
2022/05/30 11:18:54;;;;;;;0.00;0.00;;;20.00;54.50;;;;;;4186081;28;20337;-70
2022/05/30 11:22:01;;;;;;;0.00;0.00;;;20.10;53.20;;;;;;4182406;28;20052;-72
2022/05/30 11:24:25;;;;;;;0.00;0.00;;;20.10;53.50;;;;;;4168203;28;20081;-69
2022/05/30 11:27:11;;;;;;;0.00;0.00;;;20.20;51.70;;;;;;4168665;28;20087;-68
2022/05/30 11:29:49;;;;;;;0.00;0.00;;;20.20;52.30;;;;;;4168357;28;20045;-70
2022/05/30 11:32:31;;;;;;;0.00;0.00;;;19.80;52.40;;;;;;4181904;28;20053;-70
2022/05/30 11:35:16;;;;;;;0.00;0.00;;;19.80;52.60;;;;;;4191140;28;20036;-71
2022/05/30 11:38:00;;;;;;;0.00;0.00;;;20.00;52.40;;;;;;4198684;28;20431;-71
2022/05/30 11:40:48;;;;;;;0.00;0.00;;;20.00;52.60;;;;;;4198456;28;20082;-70
2022/05/30 11:43:44;;;;;;;0.00;0.00;;;20.00;52.20;;;;;;4199290;28;20086;-73
2022/05/30 11:46:36;;;;;;;0.00;0.00;;;20.20;53.10;;;;;;4198782;28;20541;-72
2022/05/30 11:49:10;;;;;;;0.00;0.00;;;20.40;52.70;;;;;;4198730;28;20083;-70
2022/05/30 11:51:35;;;;;;;0.00;0.00;;;20.50;52.60;;;;;;4199187;28;20460;-72
2022/05/30 11:54:23;;;;;;;0.00;0.00;;;20.70;51.90;;;;;;4170771;28;20139;-75
2022/05/30 11:56:55;;;;;;;0.00;0.00;;;20.80;51.00;;;;;;4198738;28;20040;-70
2022/05/30 11:59:38;;;;;;;0.00;0.00;;;20.70;50.20;;;;;;4184978;28;20049;-69
2022/05/30 12:02:06;;;;;;;0.00;0.00;;;20.60;50.80;;;;;;4184903;28;20045;-72
2022/05/30 12:04:34;;;;;;;0.00;0.00;;;20.50;50.10;;;;;;4184751;28;20057;-72
2022/05/30 12:07:23;;;;;;;0.00;0.00;;;20.50;50.00;;;;;;4198802;28;20060;-73
2022/05/30 12:10:24;;;;;;;0.00;0.00;;;20.50;50.50;;;;;;4198543;28;20048;-71
2022/05/30 12:13:10;;;;;;;0.00;0.00;;;20.40;49.60;;;;;;4198729;28;20058;-70
2022/05/30 12:15:52;;;;;;;0.00;0.00;;;20.20;49.40;;;;;;4198431;28;20045;-71
2022/05/30 12:24:34;;;;;;;0.00;0.00;;;20.30;49.50;;;;;;4184313;28;20118;-72
2022/05/30 12:27:25;;;;;;;0.00;0.00;;;20.30;49.90;;;;;;4198458;28;20478;-70
2022/05/30 12:29:49;;;;;;;0.00;0.00;;;20.30;48.90;;;;;;4198327;28;20052;-69
2022/05/30 12:32:11;;;;;;;0.00;0.00;;;20.40;49.30;;;;;;4198390;28;20451;-71
2022/05/30 12:35:01;;;;;;;0.00;0.00;;;20.70;49.10;;;;;;4197906;28;20045;-70
2022/05/30 12:37:47;;;;;;;0.00;0.00;;;20.70;49.20;;;;;;4184184;28;20056;-70
2022/05/30 12:40:26;;;;;;;0.00;0.00;;;20.70;47.70;;;;;;4183995;28;20045;-71
2022/05/30 12:43:09;;;;;;;0.00;0.00;;;20.40;48.40;;;;;;4197949;28;20048;-69
2022/05/30 12:45:51;;;;;;;0.00;0.00;;;20.50;49.10;;;;;;4184296;28;20114;-68
2022/05/30 12:48:37;;;;;;;0.00;0.00;;;20.90;48.60;;;;;;4183456;28;20538;-69
2022/05/30 12:51:13;;;;;;;0.00;0.00;;;21.00;48.00;;;;;;4184110;28;20049;-72
2022/05/30 12:53:54;;;;;;;0.00;0.00;;;21.00;47.30;;;;;;4184375;28;20076;-72
2022/05/30 12:56:39;;;;;;;0.00;0.00;;;20.80;46.70;;;;;;4170016;28;20487;-71
2022/05/30 12:59:11;;;;;;;0.00;0.00;;;20.70;46.70;;;;;;4198149;28;20490;-74
2022/05/30 13:01:43;;;;;;;0.00;0.00;;;20.50;46.30;;;;;;4184892;28;20474;-72
2022/05/30 13:04:26;;;;;;;0.00;0.00;;;20.50;47.20;;;;;;4197763;28;20595;-72
2022/05/30 13:07:01;;;;;;;0.00;0.00;;;20.70;46.30;;;;;;4197943;28;20063;-70
2022/05/30 13:09:41;;;;;;;0.00;0.00;;;20.70;46.80;;;;;;4198762;28;20433;-71
2022/05/30 13:12:17;;;;;;;0.00;0.00;;;20.80;47.20;;;;;;4197946;28;20083;-72
2022/05/30 13:14:48;;;;;;;0.00;0.00;;;20.80;47.40;;;;;;4183892;28;20499;-70
2022/05/30 13:17:25;;;;;;;0.00;0.00;;;20.90;47.20;;;;;;4197760;28;20471;-71
2022/05/30 13:19:51;;;;;;;0.00;0.00;;;21.10;47.10;;;;;;4197847;28;20045;-72
2022/05/30 13:22:15;;;;;;;0.00;0.00;;;21.10;45.90;;;;;;4197758;28;20036;-71
2022/05/30 13:24:40;;;;;;;0.00;0.00;;;20.90;45.60;;;;;;4197783;28;20052;-73
2022/05/30 13:27:02;;;;;;;0.00;0.00;;;20.90;46.10;;;;;;4197803;28;20049;-74
2022/05/30 13:30:04;;;;;;;0.00;0.00;;;20.90;45.30;;;;;;4197859;28;20052;-70
2022/05/30 13:32:28;;;;;;;0.00;0.00;;;20.90;45.50;;;;;;4200131;28;20060;-71
2022/05/30 13:34:57;;;;;;;0.00;0.00;;;20.90;45.90;;;;;;4201044;28;20041;-69
2022/05/30 13:37:23;;;;;;;0.00;0.00;;;21.00;45.60;;;;;;4217873;28;20040;-70
2022/05/30 13:39:45;;;;;;;0.00;0.00;;;21.00;45.10;;;;;;4190360;28;20049;-73
2022/05/30 13:42:07;;;;;;;0.00;0.00;;;21.00;45.50;;;;;;4203818;28;20094;-76
2022/05/30 13:44:34;;;;;;;0.00;0.00;;;20.90;44.80;;;;;;4203369;28;20090;-70
2022/05/30 13:47:03;;;;;;;0.00;0.00;;;20.90;45.10;;;;;;4189320;28;20053;-71
2022/05/30 13:49:36;;;;;;;0.00;0.00;;;20.70;44.90;;;;;;4203663;28;20049;-73
2022/05/30 13:52:03;;;;;;;0.00;0.00;;;20.80;45.20;;;;;;4175709;28;20061;-70